sensor_id;sensor_type;location;lat;lon;timestamp;P1;durP1;ratioP1;P2;durP2;ratioP2
2934;SDS011;2462;51.456;7.248;2023-03-01T00:01:00;6.57;;;5.40;;
2934;SDS011;2462;51.456;7.248;2023-03-01T00:03:26;6.40;;;5.80;;
2934;SDS011;2462;51.456;7.248;2023-03-01T00:05:52;6.37;;;5.70;;
2934;SDS011;2462;51.456;7.248;2023-03-01T00:08:18;5.63;;;5.13;;
2934;SDS011;2462;51.456;7.248;2023-03-01T00:10:44;6.67;;;5.97;;
2934;SDS011;2462;51.456;7.248;2023-03-01T00:13:10;7.37;;;6.40;;
2934;SDS011;2462;51.456;7.248;2023-03-01T00:15:39;6.80;;;6.07;;
2934;SDS011;2462;51.456;7.248;2023-03-01T00:18:06;6.43;;;5.80;;
2934;SDS011;2462;51.456;7.248;2023-03-01T00:20:32;8.33;;;5.70;;
2934;SDS011;2462;51.456;7.248;2023-03-01T00:22:58;7.17;;;6.53;;
2934;SDS011;2462;51.456;7.248;2023-03-01T00:25:24;5.90;;;5.40;;
2934;SDS011;2462;51.456;7.248;2023-03-01T00:27:50;6.27;;;5.77;;
2934;SDS011;2462;51.456;7.248;2023-03-01T00:30:16;6.53;;;5.70;;
2934;SDS011;2462;51.456;7.248;2023-03-01T00:32:42;8.10;;;6.83;;
2934;SDS011;2462;51.456;7.248;2023-03-01T00:35:08;6.37;;;5.57;;
2934;SDS011;2462;51.456;7.248;2023-03-01T00:37:34;8.47;;;6.10;;
2934;SDS011;2462;51.456;7.248;2023-03-01T00:40:00;7.43;;;6.70;;
2934;SDS011;2462;51.456;7.248;2023-03-01T00:42:26;7.10;;;6.27;;
2934;SDS011;2462;51.456;7.248;2023-03-01T00:44:52;6.40;;;5.90;;
2934;SDS011;2462;51.456;7.248;2023-03-01T00:47:18;6.07;;;5.47;;
2934;SDS011;2462;51.456;7.248;2023-03-01T00:49:44;6.07;;;5.53;;
2934;SDS011;2462;51.456;7.248;2023-03-01T00:52:10;5.80;;;5.03;;
2934;SDS011;2462;51.456;7.248;2023-03-01T00:54:36;6.77;;;6.07;;
2934;SDS011;2462;51.456;7.248;2023-03-01T00:57:02;7.13;;;6.00;;
2934;SDS011;2462;51.456;7.248;2023-03-01T00:59:28;6.43;;;5.90;;
2934;SDS011;2462;51.456;7.248;2023-03-01T01:01:54;5.93;;;5.33;;
2934;SDS011;2462;51.456;7.248;2023-03-01T01:04:20;7.10;;;5.97;;
2934;SDS011;2462;51.456;7.248;2023-03-01T01:06:47;6.90;;;6.20;;
2934;SDS011;2462;51.456;7.248;2023-03-01T01:09:14;7.50;;;6.20;;
2934;SDS011;2462;51.456;7.248;2023-03-01T01:11:44;8.40;;;5.63;;
2934;SDS011;2462;51.456;7.248;2023-03-01T01:14:10;7.30;;;6.50;;
2934;SDS011;2462;51.456;7.248;2023-03-01T01:16:36;7.03;;;6.43;;
2934;SDS011;2462;51.456;7.248;2023-03-01T01:19:02;6.60;;;6.00;;
2934;SDS011;2462;51.456;7.248;2023-03-01T01:21:29;7.40;;;6.70;;
2934;SDS011;2462;51.456;7.248;2023-03-01T01:23:55;7.33;;;6.63;;
2934;SDS011;2462;51.456;7.248;2023-03-01T01:26:23;7.23;;;6.50;;
2934;SDS011;2462;51.456;7.248;2023-03-01T01:28:49;7.37;;;6.67;;
2934;SDS011;2462;51.456;7.248;2023-03-01T01:31:16;6.00;;;5.40;;
2934;SDS011;2462;51.456;7.248;2023-03-01T01:33:42;7.13;;;5.93;;
2934;SDS011;2462;51.456;7.248;2023-03-01T01:36:08;6.83;;;6.20;;
2934;SDS011;2462;51.456;7.248;2023-03-01T01:38:34;7.43;;;6.70;;
2934;SDS011;2462;51.456;7.248;2023-03-01T01:41:00;7.23;;;6.63;;
2934;SDS011;2462;51.456;7.248;2023-03-01T01:43:28;7.07;;;6.13;;
2934;SDS011;2462;51.456;7.248;2023-03-01T01:45:59;6.47;;;5.83;;
2934;SDS011;2462;51.456;7.248;2023-03-01T01:48:28;9.77;;;6.70;;
2934;SDS011;2462;51.456;7.248;2023-03-01T01:51:05;6.87;;;5.93;;
2934;SDS011;2462;51.456;7.248;2023-03-01T01:53:32;6.70;;;6.10;;
2934;SDS011;2462;51.456;7.248;2023-03-01T01:55:58;6.83;;;6.20;;
2934;SDS011;2462;51.456;7.248;2023-03-01T01:58:27;5.83;;;5.30;;
2934;SDS011;2462;51.456;7.248;2023-03-01T02:00:55;7.63;;;6.90;;
2934;SDS011;2462;51.456;7.248;2023-03-01T02:03:31;7.00;;;6.30;;
2934;SDS011;2462;51.456;7.248;2023-03-01T02:08:28;8.00;;;7.03;;
2934;SDS011;2462;51.456;7.248;2023-03-01T02:10:55;7.17;;;6.47;;
2934;SDS011;2462;51.456;7.248;2023-03-01T02:13:21;6.47;;;5.87;;
2934;SDS011;2462;51.456;7.248;2023-03-01T02:15:47;7.10;;;6.00;;
2934;SDS011;2462;51.456;7.248;2023-03-01T02:18:14;6.80;;;6.20;;
2934;SDS011;2462;51.456;7.248;2023-03-01T02:21:08;6.90;;;6.23;;
2934;SDS011;2462;51.456;7.248;2023-03-01T02:23:29;8.63;;;6.43;;
2934;SDS011;2462;51.456;7.248;2023-03-01T02:26:01;7.30;;;6.60;;
2934;SDS011;2462;51.456;7.248;2023-03-01T02:28:32;7.73;;;6.93;;
2934;SDS011;2462;51.456;7.248;2023-03-01T02:30:59;6.83;;;6.13;;
2934;SDS011;2462;51.456;7.248;2023-03-01T02:33:44;7.10;;;6.40;;
2934;SDS011;2462;51.456;7.248;2023-03-01T02:36:14;7.10;;;6.17;;
2934;SDS011;2462;51.456;7.248;2023-03-01T02:38:41;6.67;;;6.07;;
2934;SDS011;2462;51.456;7.248;2023-03-01T02:41:08;6.60;;;6.00;;
2934;SDS011;2462;51.456;7.248;2023-03-01T02:43:34;6.70;;;6.10;;
2934;SDS011;2462;51.456;7.248;2023-03-01T02:46:07;8.10;;;6.30;;
2934;SDS011;2462;51.456;7.248;2023-03-01T02:49:16;7.83;;;6.37;;
2934;SDS011;2462;51.456;7.248;2023-03-01T02:56:36;9.07;;;6.60;;
2934;SDS011;2462;51.456;7.248;2023-03-01T02:59:02;7.33;;;6.63;;
2934;SDS011;2462;51.456;7.248;2023-03-01T03:01:29;7.40;;;6.60;;
2934;SDS011;2462;51.456;7.248;2023-03-01T03:04:01;7.13;;;6.43;;
2934;SDS011;2462;51.456;7.248;2023-03-01T03:06:27;6.87;;;6.00;;
2934;SDS011;2462;51.456;7.248;2023-03-01T03:08:54;8.80;;;6.90;;
2934;SDS011;2462;51.456;7.248;2023-03-01T03:11:20;9.10;;;7.13;;
2934;SDS011;2462;51.456;7.248;2023-03-01T03:13:46;9.23;;;7.27;;
2934;SDS011;2462;51.456;7.248;2023-03-01T03:16:13;6.93;;;6.10;;
2934;SDS011;2462;51.456;7.248;2023-03-01T03:18:39;6.77;;;6.03;;
2934;SDS011;2462;51.456;7.248;2023-03-01T03:21:08;6.90;;;6.23;;
2934;SDS011;2462;51.456;7.248;2023-03-01T03:23:37;7.20;;;6.50;;
2934;SDS011;2462;51.456;7.248;2023-03-01T03:26:03;7.73;;;6.87;;
2934;SDS011;2462;51.456;7.248;2023-03-01T03:28:33;8.77;;;7.27;;
2934;SDS011;2462;51.456;7.248;2023-03-01T03:30:59;7.50;;;6.80;;
2934;SDS011;2462;51.456;7.248;2023-03-01T03:33:31;9.57;;;6.37;;
2934;SDS011;2462;51.456;7.248;2023-03-01T03:35:58;7.27;;;6.20;;
2934;SDS011;2462;51.456;7.248;2023-03-01T03:38:24;10.27;;;5.90;;
2934;SDS011;2462;51.456;7.248;2023-03-01T03:41:03;7.60;;;6.90;;
2934;SDS011;2462;51.456;7.248;2023-03-01T03:43:31;5.87;;;5.40;;
2934;SDS011;2462;51.456;7.248;2023-03-01T03:45:57;7.67;;;6.97;;
2934;SDS011;2462;51.456;7.248;2023-03-01T03:48:24;8.90;;;7.93;;
2934;SDS011;2462;51.456;7.248;2023-03-01T03:50:51;7.73;;;7.03;;
2934;SDS011;2462;51.456;7.248;2023-03-01T03:53:17;7.00;;;6.30;;
2934;SDS011;2462;51.456;7.248;2023-03-01T03:55:44;8.23;;;7.00;;
2934;SDS011;2462;51.456;7.248;2023-03-01T03:58:10;7.37;;;6.67;;
2934;SDS011;2462;51.456;7.248;2023-03-01T04:00:37;8.03;;;6.70;;
2934;SDS011;2462;51.456;7.248;2023-03-01T04:03:04;7.90;;;7.10;;
2934;SDS011;2462;51.456;7.248;2023-03-01T04:05:30;7.00;;;6.30;;
2934;SDS011;2462;51.456;7.248;2023-03-01T04:07:57;7.00;;;6.30;;
2934;SDS011;2462;51.456;7.248;2023-03-01T04:10:26;7.47;;;6.70;;
2934;SDS011;2462;51.456;7.248;2023-03-01T04:12:52;7.90;;;7.10;;
2934;SDS011;2462;51.456;7.248;2023-03-01T04:15:20;6.87;;;6.20;;
2934;SDS011;2462;51.456;7.248;2023-03-01T04:17:49;7.40;;;6.30;;
2934;SDS011;2462;51.456;7.248;2023-03-01T04:20:16;6.40;;;5.80;;
2934;SDS011;2462;51.456;7.248;2023-03-01T04:22:43;6.83;;;6.07;;
2934;SDS011;2462;51.456;7.248;2023-03-01T04:25:12;8.30;;;7.10;;
2934;SDS011;2462;51.456;7.248;2023-03-01T04:27:39;8.43;;;7.57;;
2934;SDS011;2462;51.456;7.248;2023-03-01T04:30:06;7.10;;;6.30;;
2934;SDS011;2462;51.456;7.248;2023-03-01T04:32:32;6.97;;;6.27;;
2934;SDS011;2462;51.456;7.248;2023-03-01T04:34:58;7.30;;;6.60;;
2934;SDS011;2462;51.456;7.248;2023-03-01T04:37:24;6.80;;;6.10;;
2934;SDS011;2462;51.456;7.248;2023-03-01T04:39:51;12.23;;;6.90;;
2934;SDS011;2462;51.456;7.248;2023-03-01T04:42:17;7.63;;;6.87;;
2934;SDS011;2462;51.456;7.248;2023-03-01T04:44:43;6.50;;;5.90;;
2934;SDS011;2462;51.456;7.248;2023-03-01T04:47:10;7.93;;;7.23;;
2934;SDS011;2462;51.456;7.248;2023-03-01T04:49:36;7.10;;;6.40;;
2934;SDS011;2462;51.456;7.248;2023-03-01T04:52:02;7.10;;;6.40;;
2934;SDS011;2462;51.456;7.248;2023-03-01T04:54:29;7.00;;;6.40;;
2934;SDS011;2462;51.456;7.248;2023-03-01T04:56:55;7.33;;;6.63;;
2934;SDS011;2462;51.456;7.248;2023-03-01T04:59:21;6.93;;;6.23;;
2934;SDS011;2462;51.456;7.248;2023-03-01T05:01:47;7.87;;;6.50;;
2934;SDS011;2462;51.456;7.248;2023-03-01T05:04:14;8.10;;;7.20;;
2934;SDS011;2462;51.456;7.248;2023-03-01T05:06:40;7.83;;;6.30;;
2934;SDS011;2462;51.456;7.248;2023-03-01T05:09:06;7.60;;;6.90;;
2934;SDS011;2462;51.456;7.248;2023-03-01T05:11:32;6.80;;;6.20;;
2934;SDS011;2462;51.456;7.248;2023-03-01T05:14:01;7.20;;;6.50;;
2934;SDS011;2462;51.456;7.248;2023-03-01T05:16:27;7.20;;;6.50;;
2934;SDS011;2462;51.456;7.248;2023-03-01T05:18:53;7.10;;;6.40;;
2934;SDS011;2462;51.456;7.248;2023-03-01T05:21:20;7.40;;;6.77;;
2934;SDS011;2462;51.456;7.248;2023-03-01T05:23:46;7.50;;;6.70;;
2934;SDS011;2462;51.456;7.248;2023-03-01T05:26:13;7.57;;;6.87;;
2934;SDS011;2462;51.456;7.248;2023-03-01T05:28:39;7.70;;;6.90;;
2934;SDS011;2462;51.456;7.248;2023-03-01T05:31:06;7.93;;;6.73;;
2934;SDS011;2462;51.456;7.248;2023-03-01T05:33:35;7.03;;;6.37;;
2934;SDS011;2462;51.456;7.248;2023-03-01T05:36:01;7.37;;;6.43;;
2934;SDS011;2462;51.456;7.248;2023-03-01T05:38:27;8.97;;;7.37;;
2934;SDS011;2462;51.456;7.248;2023-03-01T05:40:53;7.93;;;6.53;;
2934;SDS011;2462;51.456;7.248;2023-03-01T05:43:19;8.67;;;7.20;;
2934;SDS011;2462;51.456;7.248;2023-03-01T05:45:45;7.73;;;6.93;;
2934;SDS011;2462;51.456;7.248;2023-03-01T05:48:11;7.93;;;7.17;;
2934;SDS011;2462;51.456;7.248;2023-03-01T05:50:39;7.53;;;6.83;;
2934;SDS011;2462;51.456;7.248;2023-03-01T05:53:07;8.70;;;7.47;;
2934;SDS011;2462;51.456;7.248;2023-03-01T05:55:35;8.17;;;7.40;;
2934;SDS011;2462;51.456;7.248;2023-03-01T05:58:02;7.73;;;6.90;;
2934;SDS011;2462;51.456;7.248;2023-03-01T06:00:29;8.70;;;7.90;;
2934;SDS011;2462;51.456;7.248;2023-03-01T06:02:55;10.33;;;7.60;;
2934;SDS011;2462;51.456;7.248;2023-03-01T06:05:22;8.73;;;7.83;;
2934;SDS011;2462;51.456;7.248;2023-03-01T06:07:48;8.23;;;7.43;;
2934;SDS011;2462;51.456;7.248;2023-03-01T06:10:15;9.40;;;7.90;;
2934;SDS011;2462;51.456;7.248;2023-03-01T06:12:41;8.30;;;7.50;;
2934;SDS011;2462;51.456;7.248;2023-03-01T06:15:09;8.53;;;7.73;;
2934;SDS011;2462;51.456;7.248;2023-03-01T06:17:36;7.87;;;7.07;;
2934;SDS011;2462;51.456;7.248;2023-03-01T06:20:06;7.67;;;6.97;;
2934;SDS011;2462;51.456;7.248;2023-03-01T06:22:33;8.23;;;7.37;;
2934;SDS011;2462;51.456;7.248;2023-03-01T06:24:59;7.17;;;6.53;;
2934;SDS011;2462;51.456;7.248;2023-03-01T06:27:25;8.53;;;7.00;;
2934;SDS011;2462;51.456;7.248;2023-03-01T06:29:51;7.80;;;6.97;;
2934;SDS011;2462;51.456;7.248;2023-03-01T06:32:17;7.77;;;7.07;;
2934;SDS011;2462;51.456;7.248;2023-03-01T06:34:43;7.50;;;6.70;;
2934;SDS011;2462;51.456;7.248;2023-03-01T06:37:09;9.07;;;7.60;;
2934;SDS011;2462;51.456;7.248;2023-03-01T06:39:35;7.80;;;7.10;;
2934;SDS011;2462;51.456;7.248;2023-03-01T06:42:01;8.80;;;6.93;;
2934;SDS011;2462;51.456;7.248;2023-03-01T06:44:27;7.70;;;6.87;;
2934;SDS011;2462;51.456;7.248;2023-03-01T06:46:53;8.20;;;7.33;;
2934;SDS011;2462;51.456;7.248;2023-03-01T06:49:19;7.90;;;7.10;;
2934;SDS011;2462;51.456;7.248;2023-03-01T06:51:46;8.50;;;7.37;;
2934;SDS011;2462;51.456;7.248;2023-03-01T06:54:12;7.90;;;7.10;;
2934;SDS011;2462;51.456;7.248;2023-03-01T06:56:38;8.70;;;7.43;;
2934;SDS011;2462;51.456;7.248;2023-03-01T06:59:04;8.23;;;7.00;;
2934;SDS011;2462;51.456;7.248;2023-03-01T07:01:30;7.83;;;7.03;;
2934;SDS011;2462;51.456;7.248;2023-03-01T07:03:57;8.17;;;7.03;;
2934;SDS011;2462;51.456;7.248;2023-03-01T07:06:23;8.30;;;7.50;;
2934;SDS011;2462;51.456;7.248;2023-03-01T07:08:49;9.47;;;7.80;;
2934;SDS011;2462;51.456;7.248;2023-03-01T07:11:15;8.10;;;7.30;;
2934;SDS011;2462;51.456;7.248;2023-03-01T07:13:41;7.97;;;7.17;;
2934;SDS011;2462;51.456;7.248;2023-03-01T07:16:07;9.20;;;7.80;;
2934;SDS011;2462;51.456;7.248;2023-03-01T07:18:33;7.90;;;7.10;;
2934;SDS011;2462;51.456;7.248;2023-03-01T07:21:09;8.90;;;7.83;;
2934;SDS011;2462;51.456;7.248;2023-03-01T07:23:37;8.93;;;8.03;;
2934;SDS011;2462;51.456;7.248;2023-03-01T07:26:03;9.13;;;6.77;;
2934;SDS011;2462;51.456;7.248;2023-03-01T07:28:29;9.40;;;7.80;;
2934;SDS011;2462;51.456;7.248;2023-03-01T07:31:00;9.83;;;7.77;;
2934;SDS011;2462;51.456;7.248;2023-03-01T07:33:26;8.50;;;7.63;;
2934;SDS011;2462;51.456;7.248;2023-03-01T07:35:55;8.03;;;7.27;;
2934;SDS011;2462;51.456;7.248;2023-03-01T07:38:21;8.77;;;7.87;;
2934;SDS011;2462;51.456;7.248;2023-03-01T07:40:49;10.17;;;7.70;;
2934;SDS011;2462;51.456;7.248;2023-03-01T07:43:15;8.80;;;7.90;;
2934;SDS011;2462;51.456;7.248;2023-03-01T07:45:41;11.23;;;8.20;;
2934;SDS011;2462;51.456;7.248;2023-03-01T07:48:07;8.17;;;7.47;;
2934;SDS011;2462;51.456;7.248;2023-03-01T07:50:32;9.13;;;7.53;;
2934;SDS011;2462;51.456;7.248;2023-03-01T07:52:59;8.10;;;7.33;;
2934;SDS011;2462;51.456;7.248;2023-03-01T07:55:25;9.00;;;8.10;;
2934;SDS011;2462;51.456;7.248;2023-03-01T07:57:51;8.80;;;8.00;;
2934;SDS011;2462;51.456;7.248;2023-03-01T08:00:17;8.40;;;7.53;;
2934;SDS011;2462;51.456;7.248;2023-03-01T08:02:43;8.90;;;8.10;;
2934;SDS011;2462;51.456;7.248;2023-03-01T08:05:10;12.97;;;9.20;;
2934;SDS011;2462;51.456;7.248;2023-03-01T08:07:36;8.37;;;7.67;;
2934;SDS011;2462;51.456;7.248;2023-03-01T08:10:02;11.10;;;8.20;;
2934;SDS011;2462;51.456;7.248;2023-03-01T08:12:28;8.70;;;7.90;;
2934;SDS011;2462;51.456;7.248;2023-03-01T08:14:54;9.07;;;7.77;;
2934;SDS011;2462;51.456;7.248;2023-03-01T08:17:20;9.20;;;8.30;;
2934;SDS011;2462;51.456;7.248;2023-03-01T08:19:46;9.50;;;7.50;;
2934;SDS011;2462;51.456;7.248;2023-03-01T08:22:12;8.20;;;7.40;;
2934;SDS011;2462;51.456;7.248;2023-03-01T08:24:38;11.35;;;9.30;;
2934;SDS011;2462;51.456;7.248;2023-03-01T08:27:04;12.77;;;9.10;;
2934;SDS011;2462;51.456;7.248;2023-03-01T08:29:31;11.40;;;9.20;;
2934;SDS011;2462;51.456;7.248;2023-03-01T08:31:57;8.57;;;7.67;;
2934;SDS011;2462;51.456;7.248;2023-03-01T08:34:23;10.43;;;8.67;;
2934;SDS011;2462;51.456;7.248;2023-03-01T08:36:49;10.03;;;8.20;;
2934;SDS011;2462;51.456;7.248;2023-03-01T08:39:17;8.43;;;7.63;;
2934;SDS011;2462;51.456;7.248;2023-03-01T08:41:44;9.10;;;8.30;;
2934;SDS011;2462;51.456;7.248;2023-03-01T08:44:10;11.70;;;9.57;;
2934;SDS011;2462;51.456;7.248;2023-03-01T08:46:37;9.70;;;8.70;;
2934;SDS011;2462;51.456;7.248;2023-03-01T08:49:12;10.30;;;8.57;;
2934;SDS011;2462;51.456;7.248;2023-03-01T08:51:39;11.80;;;9.03;;
2934;SDS011;2462;51.456;7.248;2023-03-01T08:54:26;9.27;;;8.40;;
2934;SDS011;2462;51.456;7.248;2023-03-01T08:56:51;9.43;;;8.43;;
2934;SDS011;2462;51.456;7.248;2023-03-01T08:59:17;10.27;;;9.13;;
2934;SDS011;2462;51.456;7.248;2023-03-01T09:01:44;10.37;;;9.37;;
2934;SDS011;2462;51.456;7.248;2023-03-01T09:04:10;10.90;;;8.77;;
2934;SDS011;2462;51.456;7.248;2023-03-01T09:06:37;9.83;;;8.00;;
2934;SDS011;2462;51.456;7.248;2023-03-01T09:09:04;10.50;;;8.77;;
2934;SDS011;2462;51.456;7.248;2023-03-01T09:11:30;10.43;;;9.37;;
2934;SDS011;2462;51.456;7.248;2023-03-01T09:13:56;12.57;;;9.37;;
2934;SDS011;2462;51.456;7.248;2023-03-01T09:16:22;12.57;;;8.70;;
2934;SDS011;2462;51.456;7.248;2023-03-01T09:18:49;10.70;;;8.83;;
2934;SDS011;2462;51.456;7.248;2023-03-01T09:21:16;10.80;;;9.50;;
2934;SDS011;2462;51.456;7.248;2023-03-01T09:23:43;9.57;;;8.60;;
2934;SDS011;2462;51.456;7.248;2023-03-01T09:26:10;9.63;;;8.60;;
2934;SDS011;2462;51.456;7.248;2023-03-01T09:28:37;9.50;;;8.10;;
2934;SDS011;2462;51.456;7.248;2023-03-01T09:31:03;10.30;;;8.57;;
2934;SDS011;2462;51.456;7.248;2023-03-01T09:33:30;11.27;;;7.50;;
2934;SDS011;2462;51.456;7.248;2023-03-01T09:35:57;8.40;;;7.30;;
2934;SDS011;2462;51.456;7.248;2023-03-01T09:38:23;9.73;;;7.10;;
2934;SDS011;2462;51.456;7.248;2023-03-01T09:40:49;8.00;;;7.20;;
2934;SDS011;2462;51.456;7.248;2023-03-01T09:43:18;9.23;;;7.87;;
2934;SDS011;2462;51.456;7.248;2023-03-01T09:45:46;8.40;;;7.20;;
2934;SDS011;2462;51.456;7.248;2023-03-01T09:48:18;7.77;;;7.07;;
2934;SDS011;2462;51.456;7.248;2023-03-01T09:50:47;9.13;;;6.80;;
2934;SDS011;2462;51.456;7.248;2023-03-01T09:53:15;8.00;;;7.07;;
2934;SDS011;2462;51.456;7.248;2023-03-01T09:55:49;7.90;;;6.90;;
2934;SDS011;2462;51.456;7.248;2023-03-01T09:58:31;8.70;;;7.80;;
2934;SDS011;2462;51.456;7.248;2023-03-01T10:03:39;8.77;;;7.50;;
2934;SDS011;2462;51.456;7.248;2023-03-01T10:06:10;8.23;;;7.23;;
2934;SDS011;2462;51.456;7.248;2023-03-01T10:08:40;8.70;;;7.90;;
2934;SDS011;2462;51.456;7.248;2023-03-01T10:11:41;9.50;;;7.67;;
2934;SDS011;2462;51.456;7.248;2023-03-01T10:16:48;8.50;;;7.60;;
2934;SDS011;2462;51.456;7.248;2023-03-01T10:21:57;9.20;;;6.83;;
2934;SDS011;2462;51.456;7.248;2023-03-01T10:24:26;7.73;;;6.90;;
2934;SDS011;2462;51.456;7.248;2023-03-01T10:29:19;10.93;;;6.60;;
2934;SDS011;2462;51.456;7.248;2023-03-01T10:31:48;9.10;;;6.80;;
2934;SDS011;2462;51.456;7.248;2023-03-01T10:36:41;7.73;;;6.90;;
2934;SDS011;2462;51.456;7.248;2023-03-01T10:39:12;7.37;;;6.67;;
2934;SDS011;2462;51.456;7.248;2023-03-01T10:41:55;7.67;;;6.97;;
2934;SDS011;2462;51.456;7.248;2023-03-01T10:47:16;8.57;;;7.27;;
2934;SDS011;2462;51.456;7.248;2023-03-01T10:50:19;8.07;;;7.23;;
2934;SDS011;2462;51.456;7.248;2023-03-01T10:52:37;7.93;;;7.13;;
2934;SDS011;2462;51.456;7.248;2023-03-01T10:57:39;10.40;;;7.13;;
2934;SDS011;2462;51.456;7.248;2023-03-01T11:02:48;8.87;;;6.80;;
2934;SDS011;2462;51.456;7.248;2023-03-01T11:05:22;7.53;;;6.70;;
2934;SDS011;2462;51.456;7.248;2023-03-01T11:07:56;7.20;;;6.50;;
2934;SDS011;2462;51.456;7.248;2023-03-01T11:10:32;8.13;;;7.20;;
2934;SDS011;2462;51.456;7.248;2023-03-01T11:13:08;7.43;;;6.63;;
2934;SDS011;2462;51.456;7.248;2023-03-01T11:15:40;8.03;;;7.13;;
2934;SDS011;2462;51.456;7.248;2023-03-01T11:18:15;7.00;;;6.30;;
2934;SDS011;2462;51.456;7.248;2023-03-01T11:20:44;7.43;;;6.73;;
2934;SDS011;2462;51.456;7.248;2023-03-01T11:23:11;7.40;;;6.70;;
2934;SDS011;2462;51.456;7.248;2023-03-01T11:25:42;8.20;;;6.97;;
2934;SDS011;2462;51.456;7.248;2023-03-01T11:28:11;8.80;;;7.47;;
2934;SDS011;2462;51.456;7.248;2023-03-01T11:35:47;6.83;;;6.20;;
2934;SDS011;2462;51.456;7.248;2023-03-01T11:38:16;7.23;;;6.27;;
2934;SDS011;2462;51.456;7.248;2023-03-01T11:43:15;6.93;;;6.33;;
2934;SDS011;2462;51.456;7.248;2023-03-01T11:48:28;7.63;;;6.83;;
2934;SDS011;2462;51.456;7.248;2023-03-01T11:50:58;7.20;;;6.40;;
2934;SDS011;2462;51.456;7.248;2023-03-01T12:03:37;7.30;;;6.60;;
2934;SDS011;2462;51.456;7.248;2023-03-01T12:14:08;8.70;;;7.20;;
2934;SDS011;2462;51.456;7.248;2023-03-01T12:16:46;7.97;;;7.17;;
2934;SDS011;2462;51.456;7.248;2023-03-01T12:19:21;7.87;;;7.03;;
2934;SDS011;2462;51.456;7.248;2023-03-01T12:27:21;8.60;;;7.70;;
2934;SDS011;2462;51.456;7.248;2023-03-01T12:32:36;7.97;;;7.17;;
2934;SDS011;2462;51.456;7.248;2023-03-01T12:43:22;7.77;;;6.70;;
2934;SDS011;2462;51.456;7.248;2023-03-01T12:48:22;6.00;;;5.40;;
2934;SDS011;2462;51.456;7.248;2023-03-01T12:50:54;6.50;;;5.70;;
2934;SDS011;2462;51.456;7.248;2023-03-01T12:55:49;6.33;;;5.37;;
2934;SDS011;2462;51.456;7.248;2023-03-01T13:09:04;7.20;;;5.93;;
2934;SDS011;2462;51.456;7.248;2023-03-01T13:11:21;7.43;;;5.80;;
2934;SDS011;2462;51.456;7.248;2023-03-01T13:13:48;7.70;;;6.43;;
2934;SDS011;2462;51.456;7.248;2023-03-01T13:21:44;7.53;;;6.15;;
2934;SDS011;2462;51.456;7.248;2023-03-01T13:24:29;7.47;;;5.80;;
2934;SDS011;2462;51.456;7.248;2023-03-01T13:29:43;10.27;;;6.23;;
2934;SDS011;2462;51.456;7.248;2023-03-01T13:32:18;7.20;;;6.50;;
2934;SDS011;2462;51.456;7.248;2023-03-01T13:34:46;8.30;;;5.90;;
2934;SDS011;2462;51.456;7.248;2023-03-01T13:37:20;7.28;;;5.70;;
2934;SDS011;2462;51.456;7.248;2023-03-01T13:39:46;6.90;;;5.93;;
2934;SDS011;2462;51.456;7.248;2023-03-01T13:42:29;6.67;;;6.00;;
2934;SDS011;2462;51.456;7.248;2023-03-01T13:44:56;7.03;;;6.27;;
2934;SDS011;2462;51.456;7.248;2023-03-01T13:47:22;10.83;;;7.10;;
2934;SDS011;2462;51.456;7.248;2023-03-01T13:49:51;7.13;;;6.43;;
2934;SDS011;2462;51.456;7.248;2023-03-01T13:54:47;10.27;;;7.25;;
2934;SDS011;2462;51.456;7.248;2023-03-01T13:57:15;8.30;;;6.67;;
2934;SDS011;2462;51.456;7.248;2023-03-01T13:59:46;9.60;;;6.80;;
2934;SDS011;2462;51.456;7.248;2023-03-01T14:02:12;11.20;;;6.50;;
2934;SDS011;2462;51.456;7.248;2023-03-01T14:04:39;7.10;;;6.50;;
2934;SDS011;2462;51.456;7.248;2023-03-01T14:07:12;7.17;;;5.97;;
2934;SDS011;2462;51.456;7.248;2023-03-01T14:09:40;7.10;;;6.43;;
2934;SDS011;2462;51.456;7.248;2023-03-01T14:17:49;7.83;;;6.63;;
2934;SDS011;2462;51.456;7.248;2023-03-01T14:20:21;6.97;;;6.13;;
2934;SDS011;2462;51.456;7.248;2023-03-01T14:22:48;7.07;;;6.37;;
2934;SDS011;2462;51.456;7.248;2023-03-01T14:25:31;8.80;;;6.90;;
2934;SDS011;2462;51.456;7.248;2023-03-01T14:27:59;8.03;;;6.80;;
2934;SDS011;2462;51.456;7.248;2023-03-01T14:30:27;7.30;;;6.60;;
2934;SDS011;2462;51.456;7.248;2023-03-01T14:35:23;8.77;;;6.53;;
2934;SDS011;2462;51.456;7.248;2023-03-01T14:37:50;7.83;;;6.83;;
2934;SDS011;2462;51.456;7.248;2023-03-01T14:40:20;9.80;;;6.60;;
2934;SDS011;2462;51.456;7.248;2023-03-01T14:42:46;6.90;;;6.20;;
2934;SDS011;2462;51.456;7.248;2023-03-01T14:45:12;9.10;;;7.83;;
2934;SDS011;2462;51.456;7.248;2023-03-01T14:47:39;7.30;;;6.60;;
2934;SDS011;2462;51.456;7.248;2023-03-01T14:50:09;7.97;;;6.80;;
2934;SDS011;2462;51.456;7.248;2023-03-01T14:52:41;6.43;;;5.83;;
2934;SDS011;2462;51.456;7.248;2023-03-01T14:55:21;7.47;;;6.70;;
2934;SDS011;2462;51.456;7.248;2023-03-01T14:57:49;7.03;;;6.10;;
2934;SDS011;2462;51.456;7.248;2023-03-01T15:00:16;7.27;;;6.20;;
2934;SDS011;2462;51.456;7.248;2023-03-01T15:02:43;6.73;;;6.00;;
2934;SDS011;2462;51.456;7.248;2023-03-01T15:05:09;8.90;;;7.30;;
2934;SDS011;2462;51.456;7.248;2023-03-01T15:07:39;7.77;;;5.60;;
2934;SDS011;2462;51.456;7.248;2023-03-01T15:10:06;7.73;;;6.50;;
2934;SDS011;2462;51.456;7.248;2023-03-01T15:12:35;9.70;;;7.30;;
2934;SDS011;2462;51.456;7.248;2023-03-01T15:15:18;8.60;;;6.60;;
2934;SDS011;2462;51.456;7.248;2023-03-01T15:17:48;7.13;;;5.60;;
2934;SDS011;2462;51.456;7.248;2023-03-01T15:20:17;8.40;;;5.73;;
2934;SDS011;2462;51.456;7.248;2023-03-01T15:22:46;7.07;;;6.37;;
2934;SDS011;2462;51.456;7.248;2023-03-01T15:25:16;7.57;;;6.77;;
2934;SDS011;2462;51.456;7.248;2023-03-01T15:27:47;9.03;;;5.80;;
2934;SDS011;2462;51.456;7.248;2023-03-01T15:30:17;7.10;;;6.40;;
2934;SDS011;2462;51.456;7.248;2023-03-01T15:32:44;9.93;;;6.50;;
2934;SDS011;2462;51.456;7.248;2023-03-01T15:37:55;7.97;;;6.20;;
2934;SDS011;2462;51.456;7.248;2023-03-01T15:40:26;8.43;;;6.60;;
2934;SDS011;2462;51.456;7.248;2023-03-01T15:43:05;6.90;;;6.20;;
2934;SDS011;2462;51.456;7.248;2023-03-01T15:45:32;7.97;;;6.70;;
2934;SDS011;2462;51.456;7.248;2023-03-01T15:48:32;8.23;;;6.77;;
2934;SDS011;2462;51.456;7.248;2023-03-01T15:50:54;9.30;;;6.40;;
2934;SDS011;2462;51.456;7.248;2023-03-01T15:53:21;8.73;;;6.70;;
2934;SDS011;2462;51.456;7.248;2023-03-01T15:55:47;6.87;;;6.23;;
2934;SDS011;2462;51.456;7.248;2023-03-01T15:58:16;8.53;;;6.90;;
2934;SDS011;2462;51.456;7.248;2023-03-01T16:00:43;7.23;;;6.43;;
2934;SDS011;2462;51.456;7.248;2023-03-01T16:03:12;7.17;;;6.43;;
2934;SDS011;2462;51.456;7.248;2023-03-01T16:05:38;7.00;;;5.97;;
2934;SDS011;2462;51.456;7.248;2023-03-01T16:08:05;7.90;;;6.40;;
2934;SDS011;2462;51.456;7.248;2023-03-01T16:10:31;8.13;;;7.27;;
2934;SDS011;2462;51.456;7.248;2023-03-01T16:12:57;7.33;;;6.27;;
2934;SDS011;2462;51.456;7.248;2023-03-01T16:15:24;6.13;;;5.53;;
2934;SDS011;2462;51.456;7.248;2023-03-01T16:17:52;8.53;;;6.43;;
2934;SDS011;2462;51.456;7.248;2023-03-01T16:20:18;8.17;;;7.07;;
2934;SDS011;2462;51.456;7.248;2023-03-01T16:22:45;6.20;;;5.60;;
2934;SDS011;2462;51.456;7.248;2023-03-01T16:25:12;6.70;;;6.00;;
2934;SDS011;2462;51.456;7.248;2023-03-01T16:27:38;6.20;;;5.60;;
2934;SDS011;2462;51.456;7.248;2023-03-01T16:30:05;6.50;;;5.80;;
2934;SDS011;2462;51.456;7.248;2023-03-01T16:32:31;9.60;;;6.80;;
2934;SDS011;2462;51.456;7.248;2023-03-01T16:34:57;6.80;;;5.80;;
2934;SDS011;2462;51.456;7.248;2023-03-01T16:37:23;7.27;;;6.40;;
2934;SDS011;2462;51.456;7.248;2023-03-01T16:39:49;7.50;;;6.47;;
2934;SDS011;2462;51.456;7.248;2023-03-01T16:42:17;6.83;;;5.67;;
2934;SDS011;2462;51.456;7.248;2023-03-01T16:44:43;9.23;;;6.63;;
2934;SDS011;2462;51.456;7.248;2023-03-01T16:47:09;6.77;;;5.77;;
2934;SDS011;2462;51.456;7.248;2023-03-01T16:49:35;8.70;;;6.35;;
2934;SDS011;2462;51.456;7.248;2023-03-01T16:52:01;6.37;;;5.77;;
2934;SDS011;2462;51.456;7.248;2023-03-01T16:54:27;7.00;;;5.63;;
2934;SDS011;2462;51.456;7.248;2023-03-01T16:56:53;9.37;;;6.03;;
2934;SDS011;2462;51.456;7.248;2023-03-01T16:59:19;7.43;;;5.80;;
2934;SDS011;2462;51.456;7.248;2023-03-01T17:01:45;9.13;;;6.30;;
2934;SDS011;2462;51.456;7.248;2023-03-01T17:04:12;8.00;;;6.07;;
2934;SDS011;2462;51.456;7.248;2023-03-01T17:06:38;6.87;;;5.80;;
2934;SDS011;2462;51.456;7.248;2023-03-01T17:09:04;6.73;;;5.20;;
2934;SDS011;2462;51.456;7.248;2023-03-01T17:11:30;6.60;;;5.73;;